Time;durP1;ratioP1;P1;durP2;ratioP2;P2;SDS_P1;SDS_P2;PMS_P1;PMS_P2;Temp;Humidity;BMP_temperature;BMP_pressure;BME280_temperature;BME280_humidity;BME280_pressure;Samples;Min_cycle;Max_cycle;Signal;HPM_P1;HPM_P2
2023/01/02 00:00:21;;;;;;;84.67;50.40;;;;;;;2.81;100.00;101580.69;1446173;90;22243;-84
2023/01/02 00:02:47;;;;;;;88.30;53.57;;;;;;;2.86;100.00;101576.94;1449904;90;22024;-88
2023/01/02 00:05:14;;;;;;;97.90;52.70;;;;;;;2.88;100.00;101573.81;1455961;90;22082;-89
2023/01/02 00:07:40;;;;;;;87.47;51.23;;;;;;;2.88;100.00;101575.58;1445810;90;23285;-88
2023/01/02 00:10:07;;;;;;;88.67;51.83;;;;;;;2.92;100.00;101583.66;1454401;90;22214;-87
2023/01/02 00:12:33;;;;;;;81.50;49.20;;;;;;;2.90;100.00;101575.87;1452447;90;23197;-88
2023/01/02 00:14:59;;;;;;;76.50;44.67;;;;;;;2.91;100.00;101571.05;1454150;90;22079;-89
2023/01/02 00:17:25;;;;;;;74.40;44.43;;;;;;;2.95;100.00;101582.21;1450484;90;22115;-88
2023/01/02 00:19:51;;;;;;;80.23;45.70;;;;;;;2.98;100.00;101573.38;1443277;90;22228;-88
2023/01/02 00:22:17;;;;;;;78.80;46.13;;;;;;;3.01;100.00;101578.00;1448622;90;22518;-89
2023/01/02 00:24:44;;;;;;;79.60;46.87;;;;;;;3.03;100.00;101572.25;1451297;90;22243;-90
2023/01/02 00:27:10;;;;;;;80.87;47.17;;;;;;;3.06;100.00;101574.72;1456180;90;22262;-88
2023/01/02 00:29:36;;;;;;;84.50;47.83;;;;;;;3.06;100.00;101564.27;1453559;90;22073;-87
2023/01/02 00:32:02;;;;;;;74.57;45.90;;;;;;;3.06;100.00;101560.80;1452732;90;22263;-87
2023/01/02 00:34:29;;;;;;;72.80;43.13;;;;;;;3.03;100.00;101561.79;1454824;90;22138;-87
2023/01/02 00:36:55;;;;;;;66.97;41.40;;;;;;;3.04;100.00;101560.86;1445032;90;22929;-87
2023/01/02 00:39:21;;;;;;;68.80;39.07;;;;;;;3.07;100.00;101563.33;1455045;90;22121;-86
2023/01/02 00:41:47;;;;;;;70.30;42.30;;;;;;;3.10;100.00;101561.88;1451109;90;21531;-87
2023/01/02 00:44:13;;;;;;;60.13;39.50;;;;;;;3.14;100.00;101566.06;1445359;90;22928;-86
2023/01/02 00:46:39;;;;;;;66.00;38.93;;;;;;;3.15;100.00;101566.44;1450031;90;22110;-86
2023/01/02 00:49:05;;;;;;;74.00;43.07;;;;;;;3.07;100.00;101570.33;1448344;90;22319;-84
2023/01/02 00:51:31;;;;;;;83.60;47.93;;;;;;;2.98;100.00;101574.22;1451041;90;22077;-86
2023/01/02 00:53:58;;;;;;;84.07;48.30;;;;;;;2.83;100.00;101577.55;1452367;90;22340;-86
2023/01/02 00:56:24;;;;;;;81.90;49.67;;;;;;;2.68;100.00;101585.17;1448203;90;23044;-87
2023/01/02 00:58:50;;;;;;;85.73;49.83;;;;;;;2.59;100.00;101575.13;1447690;90;23204;-87
2023/01/02 01:01:16;;;;;;;101.70;55.57;;;;;;;2.59;100.00;101575.13;1448044;90;22188;-87
2023/01/02 01:03:42;;;;;;;95.67;54.70;;;;;;;2.63;100.00;101579.29;1447919;90;22058;-87
2023/01/02 01:06:10;;;;;;;90.93;53.10;;;;;;;2.64;100.00;101574.44;1448204;90;23243;-87
2023/01/02 01:08:37;;;;;;;85.00;48.97;;;;;;;2.61;100.00;101569.35;1452048;90;22544;-85
2023/01/02 01:15:05;;;;;;;93.30;57.47;;;;;;;2.49;100.00;101568.59;1451320;90;22062;-86
2023/01/02 01:17:33;;;;;;;82.20;51.03;;;;;;;2.55;100.00;101569.63;1532574;89;22139;-85
2023/01/02 01:19:59;;;;;;;83.00;50.73;;;;;;;2.58;100.00;101566.88;1371979;90;22001;-86
2023/01/02 01:22:25;;;;;;;84.70;49.17;;;;;;;2.62;100.00;101561.08;1378504;90;22072;-82
2023/01/02 01:24:51;;;;;;;85.63;51.37;;;;;;;2.66;100.00;101563.47;1370919;90;22061;-86
2023/01/02 01:27:18;;;;;;;85.20;49.50;;;;;;;2.72;100.00;101559.73;1379697;90;21993;-83
2023/01/02 01:29:44;;;;;;;91.33;52.87;;;;;;;2.76;100.00;101561.73;1378792;90;22078;-86
2023/01/02 01:32:10;;;;;;;92.87;54.87;;;;;;;2.76;100.00;101561.73;1437681;90;22157;-85
2023/01/02 01:34:36;;;;;;;89.47;53.83;;;;;;;2.67;100.00;101554.70;1448353;90;22204;-88
2023/01/02 01:37:02;;;;;;;87.70;51.73;;;;;;;2.70;100.00;101565.47;1454977;90;22207;-88
2023/01/02 01:39:28;;;;;;;99.10;55.77;;;;;;;2.69;100.00;101561.17;1449922;90;22075;-88
2023/01/02 01:41:56;;;;;;;103.47;55.33;;;;;;;2.70;100.00;101551.97;1452107;90;23124;-89
2023/01/02 01:44:50;;;;;;;106.50;57.17;;;;;;;2.73;100.00;101548.34;1451093;90;22366;-87
2023/01/02 01:47:48;;;;;;;103.90;52.60;;;;;;;2.78;100.00;101542.92;1449852;90;22088;-90
2023/01/02 01:50:26;;;;;;;90.20;53.67;;;;;;;2.83;100.00;101531.33;1449773;89;22168;-85
2023/01/02 01:53:09;;;;;;;110.17;57.80;;;;;;;2.86;100.00;101532.95;1451406;89;22252;-89
2023/01/02 01:55:47;;;;;;;104.53;58.80;;;;;;;2.85;100.00;101535.16;1456554;90;22184;-88
2023/01/02 01:58:21;;;;;;;108.13;55.27;;;;;;;2.82;100.00;101541.84;1447511;89;23029;-89
2023/01/02 02:00:48;;;;;;;91.30;50.20;;;;;;;2.77;100.00;101545.16;1449231;90;22207;-86
2023/01/02 02:03:20;;;;;;;89.63;54.17;;;;;;;2.76;100.00;101549.97;1452900;90;23094;-87
2023/01/02 02:05:47;;;;;;;98.73;57.50;;;;;;;2.78;100.00;101552.91;1449038;90;23069;-88
2023/01/02 02:08:18;;;;;;;82.80;49.97;;;;;;;2.82;100.00;101541.41;1447814;90;22208;-87
2023/01/02 02:10:45;;;;;;;;;;;;;;;2.86;100.00;101539.50;1443809;90;23176;-87
2023/01/02 02:13:12;;;;;;;88.20;52.73;;;;;;;2.93;100.00;101539.15;1453081;90;20283;-89
2023/01/02 02:15:53;;;;;;;79.00;49.80;;;;;;;3.01;100.00;101533.54;1449922;90;23151;-88
2023/01/02 02:18:54;;;;;;;86.82;51.95;;;;;;;3.09;100.00;101522.27;1453822;90;22000;-86
2023/01/02 02:21:55;;;;;;;91.75;53.85;;;;;;;3.18;100.00;101510.51;1450623;89;21427;-86
2023/01/02 02:24:54;;;;;;;88.10;51.37;;;;;;;3.27;100.00;101506.60;1448783;90;21331;-88
2023/01/02 02:28:06;;;;;;;91.47;51.30;;;;;;;3.30;100.00;101499.91;1455911;90;21907;-88
2023/01/02 02:30:40;;;;;;;83.43;51.93;;;;;;;3.28;100.00;101506.98;1449299;90;23602;-86
2023/01/02 02:33:16;;;;;;;90.43;53.07;;;;;;;3.21;100.00;101504.29;1451109;89;22154;-86
2023/01/02 02:36:20;;;;;;;81.80;51.10;;;;;;;3.25;100.00;101504.52;1450945;90;22171;-87
2023/01/02 02:39:40;;;;;;;74.53;48.80;;;;;;;3.30;100.00;101506.45;1452604;89;22284;-86
2023/01/02 02:42:12;;;;;;;78.70;47.43;;;;;;;3.45;100.00;101494.38;1450226;90;22177;-88
2023/01/02 02:44:52;;;;;;;94.27;53.17;;;;;;;3.45;100.00;101494.38;1450308;90;21398;-87
2023/01/02 02:48:15;;;;;;;82.53;50.97;;;;;;;3.53;100.00;101493.08;1442364;90;23853;-85
2023/01/02 02:51:02;;;;;;;79.73;49.77;;;;;;;3.57;100.00;101488.09;1448273;90;22156;-83
2023/01/02 02:53:45;;;;;;;84.73;53.00;;;;;;;3.61;100.00;101484.38;1448313;90;22183;-87
2023/01/02 02:56:12;;;;;;;83.20;50.43;;;;;;;3.56;100.00;101488.16;1454328;89;22400;-86
2023/01/02 02:58:41;;;;;;;77.30;48.17;;;;;;;3.52;100.00;101490.09;1445642;90;22118;-86
2023/01/02 03:01:14;;;;;;;75.57;46.97;;;;;;;3.53;100.00;101490.46;1443575;90;23375;-87
2023/01/02 03:03:41;;;;;;;70.47;45.53;;;;;;;3.55;100.00;101493.02;1450075;89;22115;-85
2023/01/02 03:06:19;;;;;;;75.20;47.70;;;;;;;3.59;100.00;101499.31;1448989;90;21435;-89
2023/01/02 03:09:11;;;;;;;70.90;45.27;;;;;;;3.59;100.00;101499.31;1452022;90;22292;-86
2023/01/02 03:12:02;;;;;;;77.60;47.63;;;;;;;3.65;100.00;101489.00;1451639;90;21368;-86
2023/01/02 03:14:45;;;;;;;73.77;48.63;;;;;;;3.65;100.00;101489.00;1452041;89;21457;-87
2023/01/02 03:17:17;;;;;;;76.17;49.40;;;;;;;3.73;100.00;101482.08;1444788;89;22336;-86
2023/01/02 03:19:48;;;;;;;82.13;53.57;;;;;;;3.82;100.00;101485.53;1449548;89;21578;-83
2023/01/02 03:22:31;;;;;;;74.20;48.42;;;;;;;3.82;100.00;101485.53;1452637;89;21426;-86
2023/01/02 03:24:58;;;;;;;72.80;46.47;;;;;;;3.89;100.00;101481.69;1449953;89;21464;-89
2023/01/02 03:27:29;;;;;;;66.67;44.20;;;;;;;3.89;100.00;101481.69;1448777;89;21537;-86
2023/01/02 03:30:09;;;;;;;72.45;45.33;;;;;;;3.95;100.00;101468.27;1454113;89;22388;-87
2023/01/02 03:32:43;;;;;;;74.70;43.57;;;;;;;4.07;100.00;101472.86;1452583;90;22364;-88
2023/01/02 03:35:14;;;;;;;64.53;42.23;;;;;;;4.07;100.00;101472.86;1460231;89;21597;-87
2023/01/02 03:37:43;;;;;;;;;;;;;;;4.11;100.00;101473.54;1464823;89;21388;-87
2023/01/02 03:40:16;;;;;;;75.13;46.13;;;;;;;4.11;100.00;101481.87;1465483;88;20313;-87
2023/01/02 03:42:50;;;;;;;77.43;48.40;;;;;;;4.02;100.00;101491.89;1463072;89;22439;-88
2023/01/02 03:45:29;;;;;;;78.73;49.33;;;;;;;3.96;100.00;101489.59;1455642;89;22438;-89
2023/01/02 03:48:39;;;;;;;67.37;43.57;;;;;;;3.97;100.00;101481.27;1453139;89;21460;-88
2023/01/02 03:51:06;;;;;;;71.20;45.17;;;;;;;3.98;100.00;101483.83;1448098;89;22727;-86
2023/01/02 03:53:35;;;;;;;70.17;43.80;;;;;;;4.02;100.00;101482.73;1452378;90;21368;-87
2023/01/02 03:56:34;;;;;;;69.10;44.07;;;;;;;4.03;100.00;101484.44;1452578;89;21539;-87
2023/01/02 03:59:27;;;;;;;61.90;41.93;;;;;;;4.04;100.00;101478.27;1448162;89;21604;-88
2023/01/02 04:02:11;;;;;;;61.97;42.23;;;;;;;4.04;100.00;101483.97;1526856;90;21316;-88
2023/01/02 04:05:00;;;;;;;67.13;40.47;;;;;;;4.00;100.00;101476.75;1448937;89;22052;-86
2023/01/02 04:07:49;;;;;;;68.37;44.60;;;;;;;4.02;100.00;101488.44;1450938;90;21376;-89
2023/01/02 04:10:16;;;;;;;68.00;44.67;;;;;;;3.97;100.00;101494.37;1450921;90;21446;-86
2023/01/02 04:12:46;;;;;;;66.47;42.73;;;;;;;3.97;100.00;101499.61;1452320;89;22233;-87
2023/01/02 04:15:16;;;;;;;75.42;46.15;;;;;;;3.97;100.00;101499.61;1448296;90;21339;-87
2023/01/02 04:17:53;;;;;;;65.77;40.57;;;;;;;4.05;100.00;101502.21;1451278;90;21368;-88
2023/01/02 04:20:33;;;;;;;66.13;40.13;;;;;;;4.05;100.00;101502.21;1444997;90;22351;-84
2023/01/02 04:23:05;;;;;;;65.93;42.17;;;;;;;4.11;100.00;101504.14;1451419;89;21391;-88
2023/01/02 04:25:36;;;;;;;61.47;41.27;;;;;;;4.16;100.00;101506.06;1453038;89;21457;-84
2023/01/02 04:28:10;;;;;;;59.17;39.47;;;;;;;4.21;100.00;101506.68;1455740;90;21382;-83
2023/01/02 04:30:41;;;;;;;71.90;44.87;;;;;;;4.25;100.00;101512.97;1461111;89;22262;-85
2023/01/02 04:33:10;;;;;;;58.50;37.35;;;;;;;4.31;100.00;101510.49;1459616;89;21330;-84
2023/01/02 04:35:36;;;;;;;71.23;44.10;;;;;;;4.35;100.00;101508.11;1453167;90;21980;-86
2023/01/02 04:38:11;;;;;;;65.07;43.87;;;;;;;4.37;100.00;101508.85;1445803;90;21376;-86
2023/01/02 04:40:38;;;;;;;56.60;38.33;;;;;;;4.38;100.00;101514.50;1450837;90;21339;-83
2023/01/02 04:43:17;;;;;;;57.83;39.23;;;;;;;4.40;100.00;101515.70;1451370;90;21435;-86
2023/01/02 04:45:47;;;;;;;58.03;39.30;;;;;;;4.41;100.00;101513.02;1450578;90;21353;-82
2023/01/02 04:48:16;;;;;;;55.33;38.67;;;;;;;4.44;100.00;101519.41;1451330;90;22233;-85
2023/01/02 04:50:44;;;;;;;53.93;36.80;;;;;;;4.46;100.00;101518.88;1453683;90;21427;-84
2023/01/02 04:53:11;;;;;;;58.10;36.80;;;;;;;4.46;100.00;101511.45;1454221;89;21374;-81
2023/01/02 04:55:39;;;;;;;53.77;34.60;;;;;;;4.47;100.00;101517.94;1452876;89;21353;-86
2023/01/02 04:58:07;;;;;;;58.43;37.17;;;;;;;4.48;100.00;101519.62;1451160;89;21316;-87
2023/01/02 05:00:34;;;;;;;56.57;36.93;;;;;;;4.48;100.00;101518.30;1452975;89;22262;-92
2023/01/02 05:03:03;;;;;;;58.20;38.17;;;;;;;4.48;100.00;101520.93;1451262;90;21419;-93
2023/01/02 05:05:31;;;;;;;56.90;37.27;;;;;;;4.46;100.00;101527.18;1451496;90;21375;-90
2023/01/02 05:07:58;;;;;;;53.73;35.87;;;;;;;4.45;100.00;101532.89;1450970;89;22277;-90
2023/01/02 05:10:25;;;;;;;57.37;36.30;;;;;;;4.51;100.00;101525.16;1455138;89;21441;-91
2023/01/02 05:12:52;;;;;;;59.67;37.03;;;;;;;4.60;100.00;101525.14;1450406;89;21404;-88
2023/01/02 05:15:20;;;;;;;51.03;33.60;;;;;;;4.65;100.00;101520.50;1448782;89;22300;-90
2023/01/02 05:17:47;;;;;;;50.77;35.53;;;;;;;4.71;100.00;101518.38;1529417;90;21258;-88
2023/01/02 05:20:14;;;;;;;46.00;31.97;;;;;;;4.78;100.00;101511.05;1377723;90;21236;-88
2023/01/02 05:25:34;;;;;;;46.13;31.57;;;;;;;4.91;100.00;101512.05;1452303;90;21287;-87
2023/01/02 05:28:03;;;;;;;49.57;32.63;;;;;;;4.93;100.00;101508.88;1376718;90;21383;-85
2023/01/02 05:30:30;;;;;;;49.53;32.53;;;;;;;4.97;100.00;101509.55;1376855;90;21310;-90
2023/01/02 05:32:57;;;;;;;53.10;32.67;;;;;;;5.00;100.00;101511.16;1377693;90;21177;-93
2023/01/02 05:35:24;;;;;;;50.37;33.33;;;;;;;5.00;100.00;101504.60;1376916;90;21391;-93
2023/01/02 05:37:53;;;;;;;48.50;32.13;;;;;;;5.03;100.00;101510.99;1494768;89;21309;-93
2023/01/02 05:40:20;;;;;;;46.10;29.17;;;;;;;5.09;100.00;101509.33;1451310;89;22351;-89
2023/01/02 05:42:47;;;;;;;42.67;29.83;;;;;;;5.17;100.00;101505.81;1450643;89;21390;-90
2023/01/02 05:45:15;;;;;;;36.27;26.17;;;;;;;5.24;100.00;101500.62;1455596;89;21405;-91
2023/01/02 05:47:42;;;;;;;34.37;25.20;;;;;;;5.29;100.00;101495.09;1450504;89;21509;-91
2023/01/02 05:50:09;;;;;;;38.63;25.33;;;;;;;5.34;100.00;101499.14;1450622;90;21520;-90
2023/01/02 05:52:36;;;;;;;35.47;25.57;;;;;;;5.40;100.00;101500.57;1448485;90;21530;-93
2023/01/02 05:55:04;;;;;;;33.50;22.07;;;;;;;5.42;100.00;101494.78;1452314;89;21435;-93
2023/01/02 05:57:32;;;;;;;31.53;21.97;;;;;;;5.39;100.00;101499.73;1454855;89;21479;-91
2023/01/02 05:59:59;;;;;;;30.67;21.80;;;;;;;5.33;100.00;101492.69;1453586;89;21427;-88
2023/01/02 06:02:26;;;;;;;32.07;21.40;;;;;;;5.26;100.00;101488.23;1455730;89;21390;-90
2023/01/02 06:04:53;;;;;;;32.97;23.23;;;;;;;5.19;100.00;101494.77;1452556;89;21354;-93
2023/01/02 06:07:20;;;;;;;33.43;23.93;;;;;;;5.10;100.00;101496.14;1450346;89;22371;-91
2023/01/02 06:09:47;;;;;;;32.93;22.80;;;;;;;5.01;100.00;101499.76;1454237;89;21419;-92
2023/01/02 06:12:15;;;;;;;36.23;23.47;;;;;;;4.95;100.00;101499.16;1451590;89;21427;-92
2023/01/02 06:14:45;;;;;;;32.23;25.25;;;;;;;4.88;100.00;101498.27;1453873;89;22359;-94
2023/01/02 06:17:12;;;;;;;31.90;22.87;;;;;;;4.77;100.00;101501.47;1452570;90;21441;-90
2023/01/02 06:19:39;;;;;;;33.10;22.73;;;;;;;4.70;100.00;101506.69;1453571;90;21347;-90
2023/01/02 06:22:06;;;;;;;32.17;22.87;;;;;;;4.62;100.00;101507.56;1452193;89;21608;-92
2023/01/02 06:24:33;;;;;;;30.73;21.50;;;;;;;4.57;100.00;101501.70;1453104;90;21390;-91
2023/01/02 06:27:00;;;;;;;31.13;22.00;;;;;;;4.49;100.00;101504.76;1447475;90;21494;-89
2023/01/02 06:29:27;;;;;;;27.93;19.60;;;;;;;4.44;100.00;101504.99;1453632;90;21339;-88
2023/01/02 06:31:54;;;;;;;29.20;20.73;;;;;;;4.40;100.00;101507.41;1452506;89;21428;-89
2023/01/02 06:34:21;;;;;;;29.33;22.27;;;;;;;4.42;100.00;101503.38;1452029;90;21339;-88
2023/01/02 06:36:48;;;;;;;29.47;21.57;;;;;;;4.41;100.00;101506.47;1447821;90;22307;-90
2023/01/02 06:39:15;;;;;;;32.90;22.87;;;;;;;4.43;100.00;101513.80;1448110;90;21294;-90
2023/01/02 06:41:42;;;;;;;32.23;21.87;;;;;;;4.42;100.00;101512.09;1451783;90;21332;-88
2023/01/02 06:44:12;;;;;;;28.43;20.03;;;;;;;4.38;100.00;101510.56;1451287;90;21486;-90
2023/01/02 06:46:40;;;;;;;32.40;22.63;;;;;;;4.35;100.00;101497.63;1450582;90;21398;-88
2023/01/02 06:49:07;;;;;;;39.53;23.90;;;;;;;4.36;100.00;101503.70;1451725;90;21520;-92
2023/01/02 06:51:34;;;;;;;30.97;21.50;;;;;;;4.39;100.00;101504.38;1453774;90;21657;-88
2023/01/02 06:54:01;;;;;;;30.07;21.37;;;;;;;4.44;100.00;101506.30;1449273;90;21346;-89
2023/01/02 06:56:28;;;;;;;32.00;21.27;;;;;;;4.46;100.00;101505.77;1453068;89;21501;-90
2023/01/02 06:58:57;;;;;;;37.67;24.00;;;;;;;4.47;100.00;101507.45;1442171;89;22293;-88
2023/01/02 07:01:24;;;;;;;36.33;24.57;;;;;;;4.50;100.00;101505.97;1449210;89;21496;-88
2023/01/02 07:03:52;;;;;;;61.60;30.20;;;;;;;4.52;100.00;101505.91;1447511;89;21389;-87
2023/01/02 07:06:21;;;;;;;32.67;23.00;;;;;;;4.60;100.00;101509.41;1454280;88;21538;-87
2023/01/02 07:08:48;;;;;;;40.60;26.47;;;;;;;4.61;100.00;101518.52;1376973;89;21227;-86
2023/01/02 07:11:20;;;;;;;47.27;31.37;;;;;;;4.60;100.00;101510.72;1386004;89;21243;-86
2023/01/02 07:13:49;;;;;;;41.00;26.50;;;;;;;4.64;100.00;101513.57;1535411;89;22072;-87
2023/01/02 07:16:19;;;;;;;34.50;22.53;;;;;;;4.63;100.00;101517.11;1376507;89;21324;-87
2023/01/02 07:18:46;;;;;;;43.57;24.87;;;;;;;4.62;100.00;101527.22;1377253;89;21332;-86
2023/01/02 07:21:17;;;;;;;42.07;28.70;;;;;;;4.58;100.00;101526.55;1377936;89;21417;-88
2023/01/02 07:23:44;;;;;;;43.37;29.33;;;;;;;4.56;100.00;101526.24;1383185;89;21294;-85
2023/01/02 07:26:12;;;;;;;34.37;24.07;;;;;;;4.60;100.00;101529.07;1379407;89;21424;-89
2023/01/02 07:28:45;;;;;;;43.87;28.30;;;;;;;4.65;100.00;101527.05;1378369;89;21221;-88
2023/01/02 07:31:16;;;;;;;45.23;27.27;;;;;;;4.69;100.00;101533.81;1529170;89;21411;-88
2023/01/02 07:33:43;;;;;;;43.02;24.75;;;;;;;4.77;100.00;101533.41;1441962;89;21442;-90
2023/01/02 07:36:17;;;;;;;42.07;28.50;;;;;;;4.91;100.00;101526.48;1453651;89;22314;-86
2023/01/02 07:38:46;;;;;;;43.40;28.50;;;;;;;5.03;100.00;101525.42;1453222;89;21307;-89
2023/01/02 07:41:16;;;;;;;44.37;30.03;;;;;;;5.12;100.00;101532.78;1375578;90;21442;-87
2023/01/02 07:43:46;;;;;;;41.15;29.75;;;;;;;5.14;100.00;101526.52;1374686;89;21443;-88
2023/01/02 07:46:16;;;;;;;40.97;27.33;;;;;;;5.18;100.00;101528.52;1381316;89;21394;-89
2023/01/02 07:48:45;;;;;;;40.60;28.23;;;;;;;5.26;100.00;101518.41;1532717;89;21288;-88
2023/01/02 07:51:13;;;;;;;43.60;28.60;;;;;;;5.32;100.00;101520.72;1377783;90;21384;-85
2023/01/02 07:53:41;;;;;;;32.77;24.20;;;;;;;5.42;100.00;101520.56;1533860;89;21287;-87
2023/01/02 07:56:08;;;;;;;42.70;27.40;;;;;;;5.53;100.00;101519.11;1419264;90;22308;-87
2023/01/02 07:58:36;;;;;;;41.17;27.67;;;;;;;5.64;100.00;101517.55;1441658;90;21310;-87
2023/01/02 08:01:11;;;;;;;43.90;30.13;;;;;;;5.74;100.00;101511.28;1377539;90;21361;-88
2023/01/02 08:03:39;;;;;;;39.47;26.93;;;;;;;5.85;100.00;101516.75;1534201;89;21177;-86
2023/01/02 08:06:10;;;;;;;40.70;24.47;;;;;;;5.96;100.00;101514.84;1385485;89;21279;-86
2023/01/02 08:08:37;;;;;;;;;;;;;;;6.06;100.00;101515.97;1377458;90;21236;-86
2023/01/02 08:11:10;;;;;;;37.57;25.53;;;;;;;6.15;100.00;101523.77;1379442;89;20748;-90
2023/01/02 08:13:37;;;;;;;40.40;25.33;;;;;;;6.26;100.00;101517.40;1376794;90;22174;-85
2023/01/02 08:16:08;;;;;;;34.87;23.17;;;;;;;6.40;100.00;101519.19;1423356;89;21426;-86
2023/01/02 08:18:36;;;;;;;33.10;22.73;;;;;;;6.53;100.00;101521.90;1449884;89;21568;-87
2023/01/02 08:21:05;;;;;;;30.37;20.67;;;;;;;6.65;100.00;101529.05;1447925;90;21413;-87
2023/01/02 08:23:33;;;;;;;29.77;19.17;;;;;;;6.78;100.00;101526.02;1448897;90;21354;-87
2023/01/02 08:26:04;;;;;;;26.40;18.30;;;;;;;6.93;100.00;101523.36;1449095;90;21375;-88
2023/01/02 08:28:35;;;;;;;;;;;;;;;7.05;100.00;101519.97;1450955;89;21471;-88
2023/01/02 08:31:15;;;;;;;27.98;17.67;;;;;;;7.14;100.00;101518.05;1451916;89;20305;-90
2023/01/02 08:33:46;;;;;;;29.25;18.67;;;;;;;7.29;100.00;101509.62;1450388;89;21332;-86
2023/01/02 08:36:20;;;;;;;28.23;18.27;;;;;;;7.39;100.00;101517.31;1420703;90;21266;-86
2023/01/02 08:38:47;;;;;;;28.97;18.90;;;;;;;7.53;100.00;101515.55;1385155;90;21406;-87
2023/01/02 08:41:16;;;;;;;32.43;18.23;;;;;;;7.63;100.00;101516.16;1378701;90;22093;-87
2023/01/02 08:43:43;;;;;;;23.70;16.47;;;;;;;7.76;100.00;101515.33;1524658;89;21286;-85
2023/01/02 08:46:22;;;;;;;25.47;16.40;;;;;;;7.86;100.00;101515.09;1379432;89;21399;-88
2023/01/02 08:48:49;;;;;;;25.83;18.40;;;;;;;7.94;100.00;101523.78;1371595;90;21259;-84
2023/01/02 08:51:17;;;;;;;31.70;20.27;;;;;;;8.03;100.00;101520.55;1385602;89;22212;-87
2023/01/02 08:53:44;;;;;;;35.33;22.23;;;;;;;8.10;100.00;101531.03;1524319;90;21436;-88
2023/01/02 08:56:30;;;;;;;32.43;21.27;;;;;;;8.14;100.00;101537.33;1405311;90;21367;-87
2023/01/02 08:59:04;;;;;;;49.50;31.03;;;;;;;8.22;100.00;101541.22;1375365;88;21332;-86
2023/01/02 09:01:32;;;;;;;37.43;23.97;;;;;;;8.33;100.00;101540.00;1381135;90;21287;-87
2023/01/02 09:04:02;;;;;;;41.33;24.40;;;;;;;8.40;100.00;101533.41;1409182;90;21375;-87
2023/01/02 09:06:32;;;;;;;37.27;23.07;;;;;;;8.55;100.00;101543.36;1453064;90;22194;-88
2023/01/02 09:09:02;;;;;;;26.83;17.97;;;;;;;8.71;100.00;101539.98;1446974;90;21301;-88
2023/01/02 09:11:36;;;;;;;30.02;17.02;;;;;;;8.71;100.00;101539.98;1453953;90;21353;-89
2023/01/02 09:14:05;;;;;;;25.03;16.53;;;;;;;8.70;100.00;101534.36;1453109;90;21419;-89
2023/01/02 09:16:32;;;;;;;28.70;16.80;;;;;;;8.72;100.00;101534.27;1451111;90;21478;-89
2023/01/02 09:19:01;;;;;;;22.03;15.57;;;;;;;8.73;100.00;101518.30;1444778;90;22402;-85
2023/01/02 09:21:28;;;;;;;22.57;16.00;;;;;;;8.74;100.00;101515.17;1451281;90;21457;-89
2023/01/02 09:23:56;;;;;;;23.60;15.23;;;;;;;8.75;100.00;101520.36;1454790;90;21346;-85
2023/01/02 09:26:24;;;;;;;22.13;14.60;;;;;;;8.77;100.00;101513.64;1453426;90;21612;-85
2023/01/02 09:28:51;;;;;;;25.03;15.20;;;;;;;8.79;99.80;101518.34;1449694;88;21390;-87
2023/01/02 09:31:19;;;;;;;26.63;14.70;;;;;;;8.81;99.99;101519.08;1449336;90;21420;-88
2023/01/02 09:33:47;;;;;;;22.80;15.63;;;;;;;8.86;100.00;101516.09;1448178;89;22943;-89
2023/01/02 09:36:18;;;;;;;19.87;13.57;;;;;;;8.88;99.47;101522.12;1453697;90;21412;-88
2023/01/02 09:38:54;;;;;;;18.95;13.78;;;;;;;8.86;99.53;101511.69;1370222;90;21206;-87
2023/01/02 09:41:42;;;;;;;20.03;13.73;;;;;;;8.93;100.00;101510.27;1376452;90;21458;-85
2023/01/02 09:44:23;;;;;;;21.73;15.07;;;;;;;8.93;99.33;101493.59;1535265;90;21192;-88
2023/01/02 09:47:01;;;;;;;19.13;14.40;;;;;;;8.90;98.75;101491.17;1535116;90;21192;-86
2023/01/02 09:49:36;;;;;;;16.83;12.70;;;;;;;8.93;99.36;101509.44;1380842;90;22249;-88
2023/01/02 09:52:06;;;;;;;20.83;13.93;;;;;;;8.94;99.17;101497.42;1428111;89;21397;-88
2023/01/02 09:54:34;;;;;;;16.93;11.20;;;;;;;8.96;99.20;101498.17;1457305;89;22307;-89
2023/01/02 09:57:30;;;;;;;19.13;14.00;;;;;;;9.02;99.65;101494.24;1449759;90;21309;-86
2023/01/02 10:03:04;;;;;;;20.17;13.17;;;;;;;9.15;99.31;101480.97;1520820;82;26843;-85
2023/01/02 10:06:08;;;;;;;30.77;15.73;;;;;;;9.15;98.58;101483.16;1504090;83;21418;-87
2023/01/02 10:08:57;;;;;;;38.90;19.93;;;;;;;9.17;98.58;101476.43;1500596;83;21469;-87
2023/01/02 10:11:41;;;;;;;61.30;32.50;;;;;;;9.19;98.46;101483.77;1499280;83;21345;-86
2023/01/02 10:14:25;;;;;;;38.00;23.80;;;;;;;9.18;98.44;101474.17;1512170;83;21487;-84
2023/01/02 10:16:58;;;;;;;31.23;18.63;;;;;;;9.14;98.37;101472.69;1495770;83;22620;-87
2023/01/02 10:19:50;;;;;;;24.17;16.93;;;;;;;9.11;98.55;101476.40;1504618;83;21374;-86
2023/01/02 10:22:22;;;;;;;21.43;14.70;;;;;;;9.10;98.30;101473.89;1463877;83;22075;-85
2023/01/02 10:25:09;;;;;;;17.97;13.50;;;;;;;9.11;98.22;101470.28;1492256;83;21456;-86
2023/01/02 10:27:40;;;;;;;24.87;15.03;;;;;;;9.11;98.14;101468.96;1435454;87;21560;-88
2023/01/02 10:30:25;;;;;;;24.97;15.90;;;;;;;9.13;97.84;101469.22;1441563;87;21632;-87
2023/01/02 10:33:16;;;;;;;27.17;16.83;;;;;;;9.18;97.96;101461.80;1444361;87;22871;-87
2023/01/02 10:35:45;;;;;;;;;;;;;;;9.17;97.04;101456.62;1445318;87;22453;-86
2023/01/02 10:38:15;;;;;;;27.40;16.50;;;;;;;9.12;96.10;101450.83;1449933;87;20331;-89
2023/01/02 10:40:45;;;;;;;42.17;19.35;;;;;;;9.09;96.80;101445.33;1452713;87;21514;-92
2023/01/02 10:43:13;;;;;;;32.10;17.70;;;;;;;9.08;96.93;101434.86;1523526;87;21449;-87
2023/01/02 10:45:40;;;;;;;28.23;16.63;;;;;;;9.11;97.30;101442.06;1417851;90;21323;-90
2023/01/02 10:48:10;;;;;;;21.87;15.67;;;;;;;9.14;97.40;101438.36;1379357;90;22314;-90
2023/01/02 10:50:41;;;;;;;25.10;17.00;;;;;;;9.17;97.13;101426.25;1422255;90;21470;-91
2023/01/02 10:53:31;;;;;;;41.93;18.60;;;;;;;9.19;97.17;101432.27;1439911;88;21536;-90
2023/01/02 10:56:03;;;;;;;24.93;17.60;;;;;;;9.24;97.45;101423.53;1421382;90;21426;-89
2023/01/02 10:58:33;;;;;;;33.03;18.73;;;;;;;9.24;96.92;101423.05;1437192;90;21680;-90
2023/01/02 11:01:12;;;;;;;41.47;20.73;;;;;;;9.25;96.93;101422.56;1419638;90;22623;-86
2023/01/02 11:03:39;;;;;;;26.33;17.47;;;;;;;9.27;96.62;101415.38;1422857;90;21541;-87
2023/01/02 11:06:19;;;;;;;33.07;17.90;;;;;;;9.25;96.30;101427.84;1471170;86;22220;-85
2023/01/02 11:09:03;;;;;;;31.10;20.20;;;;;;;9.23;95.69;101427.11;1499821;86;22320;-87
2023/01/02 11:11:31;;;;;;;27.50;18.40;;;;;;;9.21;95.59;101431.68;1495364;85;21471;-87
2023/01/02 11:14:10;;;;;;;27.50;19.50;;;;;;;9.19;95.55;101428.30;1484991;86;21449;-87
2023/01/02 11:16:40;;;;;;;27.77;19.43;;;;;;;9.17;95.43;101422.28;1485638;86;21391;-87
2023/01/02 11:19:19;;;;;;;28.50;18.70;;;;;;;9.15;95.28;101426.83;1495597;86;21544;-84
2023/01/02 11:21:47;;;;;;;26.13;16.77;;;;;;;9.14;95.72;101419.39;1498450;85;22970;-86
2023/01/02 11:24:18;;;;;;;22.47;16.27;;;;;;;9.13;95.63;101420.36;1494850;85;22331;-87
2023/01/02 11:26:48;;;;;;;25.32;17.07;;;;;;;9.14;95.72;101418.55;1486575;86;21391;-86
2023/01/02 11:29:33;;;;;;;25.47;17.37;;;;;;;9.13;95.64;101419.52;1502658;86;21499;-86
2023/01/02 11:32:02;;;;;;;24.50;17.87;;;;;;;9.14;95.59;101419.87;1500017;86;22366;-87
2023/01/02 11:34:41;;;;;;;27.13;19.30;;;;;;;9.12;95.31;101403.29;1492360;86;22241;-88
2023/01/02 11:37:16;;;;;;;27.80;18.82;;;;;;;9.12;95.45;101405.93;1501703;86;21377;-86
2023/01/02 11:39:59;;;;;;;28.17;19.73;;;;;;;9.10;95.35;101401.27;1481563;86;21413;-85
2023/01/02 11:45:22;;;;;;;36.67;25.27;;;;;;;9.16;96.04;101390.23;1505080;86;21339;-86
2023/01/02 11:47:52;;;;;;;37.53;26.90;;;;;;;9.21;95.87;101387.62;1507705;86;21442;-86